Time;durP1;ratioP1;P1;durP2;ratioP2;P2;SDS_P1;SDS_P2;PMS_P1;PMS_P2;Temp;Humidity;BMP_temperature;BMP_pressure;BME280_temperature;BME280_humidity;BME280_pressure;Samples;Min_cycle;Max_cycle;Signal;HPM_P1;HPM_P2
2022/04/06 00:01:37;;;;;;;17.10;12.25;;;;;;;;;;5106431;27;20707;-17
2022/04/06 00:04:04;;;;;;;17.67;11.70;;;;;;;;;;5106089;28;20243;-17
2022/04/06 00:06:32;;;;;;;19.13;12.60;;;;;;;;;;5106014;27;20465;-17
2022/04/06 00:09:16;;;;;;;12.35;8.82;;;;;;;;;;5109998;27;20232;-17
2022/04/06 00:11:44;;;;;;;15.38;10.18;;;;;;;;;;5104682;27;20232;-18
2022/04/06 00:14:12;;;;;;;22.48;11.57;;;;;;;;;;5110328;27;20243;-17
2022/04/06 00:16:40;;;;;;;23.17;11.40;;;;;;;;;;5110019;27;20412;-18
2022/04/06 00:19:08;;;;;;;23.52;11.18;;;;;;;;;;5108909;27;20232;-17
2022/04/06 00:21:35;;;;;;;28.08;12.30;;;;;;;;;;5114110;27;20232;-16
2022/04/06 00:24:02;;;;;;;29.88;11.00;;;;;;;;;;5119930;27;20701;-17
2022/04/06 00:26:30;;;;;;;26.08;10.75;;;;;;;;;;5107076;27;20232;-16
2022/04/06 00:28:57;;;;;;;24.33;10.77;;;;;;;;;;5109142;27;20223;-17
2022/04/06 00:31:24;;;;;;;19.13;11.20;;;;;;;;;;5115037;27;20235;-17
2022/04/06 00:33:53;;;;;;;21.13;11.23;;;;;;;;;;5109852;27;20227;-17
2022/04/06 00:36:21;;;;;;;20.73;10.18;;;;;;;;;;5106326;28;20302;-17
2022/04/06 00:38:48;;;;;;;20.58;10.52;;;;;;;;;;5104353;27;20258;-18
2022/04/06 00:41:15;;;;;;;25.13;9.73;;;;;;;;;;5114173;27;20710;-17
2022/04/06 00:43:42;;;;;;;19.75;10.30;;;;;;;;;;5113438;27;21093;-17
2022/04/06 00:46:10;;;;;;;24.45;9.70;;;;;;;;;;5112025;27;20227;-17
2022/04/06 00:48:37;;;;;;;20.67;9.68;;;;;;;;;;5114236;27;20737;-17
2022/04/06 00:51:06;;;;;;;17.60;9.88;;;;;;;;;;5110855;27;20243;-17
2022/04/06 00:53:33;;;;;;;20.38;9.30;;;;;;;;;;5114632;27;20227;-17
2022/04/06 00:56:00;;;;;;;17.48;9.50;;;;;;;;;;5112364;27;20238;-17
2022/04/06 00:58:28;;;;;;;23.73;9.90;;;;;;;;;;5113750;27;20702;-17
2022/04/06 01:00:55;;;;;;;18.05;8.88;;;;;;;;;;5111140;27;20232;-17
2022/04/06 01:03:23;;;;;;;18.23;9.05;;;;;;;;;;5113590;27;20279;-17
2022/04/06 01:05:51;;;;;;;16.67;9.02;;;;;;;;;;5104881;28;20212;-17
2022/04/06 01:08:20;;;;;;;18.88;9.45;;;;;;;;;;5105666;28;20212;-17
2022/04/06 01:10:47;;;;;;;18.83;9.40;;;;;;;;;;5109445;27;20243;-18
2022/04/06 01:13:15;;;;;;;14.70;9.18;;;;;;;;;;5109331;27;20224;-17
2022/04/06 01:15:42;;;;;;;20.75;10.00;;;;;;;;;;5110129;27;20700;-17
2022/04/06 01:18:09;;;;;;;16.60;9.15;;;;;;;;;;5108951;27;20232;-17
2022/04/06 01:20:37;;;;;;;17.17;8.80;;;;;;;;;;5106758;28;20706;-17
2022/04/06 01:23:05;;;;;;;14.63;8.38;;;;;;;;;;5113288;27;20236;-17
2022/04/06 01:25:38;;;;;;;19.48;9.43;;;;;;;;;;5111570;27;20988;-17
2022/04/06 01:28:05;;;;;;;21.08;8.82;;;;;;;;;;5113319;27;20220;-17
2022/04/06 01:30:32;;;;;;;14.75;8.25;;;;;;;;;;5111969;27;20246;-16
2022/04/06 01:33:00;;;;;;;14.48;7.90;;;;;;;;;;5109624;27;20762;-17
2022/04/06 01:35:27;;;;;;;17.38;8.80;;;;;;;;;;5112566;27;20217;-17
2022/04/06 01:37:55;;;;;;;16.85;8.90;;;;;;;;;;5110897;27;20698;-17
2022/04/06 01:40:25;;;;;;;16.95;8.57;;;;;;;;;;5109316;27;20222;-17
2022/04/06 01:42:53;;;;;;;21.20;8.75;;;;;;;;;;5106711;28;20699;-17
2022/04/06 01:45:20;;;;;;;14.40;8.20;;;;;;;;;;5107570;28;20266;-17
2022/04/06 01:47:47;;;;;;;20.58;9.02;;;;;;;;;;5112714;28;20228;-17
2022/04/06 01:53:03;;;;;;;16.38;8.65;;;;;;;;;;5107339;28;21047;-17
2022/04/06 01:55:32;;;;;;;17.88;9.20;;;;;;;;;;5111573;27;20228;-16
2022/04/06 01:57:59;;;;;;;21.50;8.80;;;;;;;;;;5112478;27;20699;-17
2022/04/06 02:00:27;;;;;;;14.13;8.18;;;;;;;;;;5104129;27;20235;-17
2022/04/06 02:02:54;;;;;;;20.48;9.43;;;;;;;;;;5112473;27;20244;-17
2022/04/06 02:05:22;;;;;;;14.93;8.50;;;;;;;;;;5109655;27;20235;-17
2022/04/06 02:07:50;;;;;;;18.70;8.95;;;;;;;;;;5104337;28;20965;-17
2022/04/06 02:10:17;;;;;;;18.35;8.68;;;;;;;;;;5111802;27;20239;-17
2022/04/06 02:12:46;;;;;;;18.35;9.38;;;;;;;;;;5112798;27;20226;-18
2022/04/06 02:15:14;;;;;;;21.20;8.50;;;;;;;;;;5112067;27;20232;-17
2022/04/06 02:17:42;;;;;;;21.08;8.63;;;;;;;;;;5112163;28;20231;-17
2022/04/06 02:20:09;;;;;;;16.63;8.30;;;;;;;;;;5112820;27;20289;-17
2022/04/06 02:22:37;;;;;;;19.95;8.65;;;;;;;;;;5095190;22;20234;-14
2022/04/06 02:25:05;;;;;;;16.35;8.80;;;;;;;;;;5072159;28;20969;-15
2022/04/06 02:27:32;;;;;;;19.10;8.23;;;;;;;;;;5070770;28;20232;-15
2022/04/06 02:30:01;;;;;;;21.13;8.40;;;;;;;;;;5071448;28;20676;-14
2022/04/06 02:32:28;;;;;;;16.23;8.70;;;;;;;;;;5070199;28;20233;-14
2022/04/06 02:34:55;;;;;;;22.15;8.57;;;;;;;;;;5071647;28;20220;-15
2022/04/06 02:37:23;;;;;;;18.10;7.53;;;;;;;;;;5069569;28;20233;-15
2022/04/06 02:39:50;;;;;;;15.02;8.82;;;;;;;;;;5070159;28;20241;-14
2022/04/06 02:42:17;;;;;;;17.73;8.20;;;;;;;;;;5071903;28;20221;-14
2022/04/06 02:44:45;;;;;;;18.80;8.07;;;;;;;;;;5071157;28;20235;-15
2022/04/06 02:47:13;;;;;;;14.70;7.38;;;;;;;;;;5068916;28;20226;-14
2022/04/06 02:49:41;;;;;;;18.23;7.75;;;;;;;;;;5069590;28;20237;-15
2022/04/06 02:52:08;;;;;;;15.98;7.30;;;;;;;;;;5070930;28;20734;-14
2022/04/06 02:54:36;;;;;;;17.30;6.82;;;;;;;;;;5071038;28;20230;-14
2022/04/06 02:57:06;;;;;;;16.48;7.82;;;;;;;;;;5070743;28;20229;-14
2022/04/06 02:59:33;;;;;;;14.02;6.85;;;;;;;;;;5070517;28;20225;-15
2022/04/06 03:02:00;;;;;;;17.13;7.45;;;;;;;;;;5070262;28;20722;-14
2022/04/06 03:04:29;;;;;;;15.75;6.82;;;;;;;;;;5071602;28;20231;-14
2022/04/06 03:06:56;;;;;;;16.00;6.78;;;;;;;;;;5070979;28;20220;-14
2022/04/06 03:09:24;;;;;;;16.58;6.63;;;;;;;;;;5071108;28;20260;-14
2022/04/06 03:11:51;;;;;;;14.23;6.70;;;;;;;;;;5066412;28;20241;-14
2022/04/06 03:14:18;;;;;;;13.93;6.40;;;;;;;;;;5070936;28;21001;-14
2022/04/06 03:16:46;;;;;;;22.02;7.40;;;;;;;;;;5070429;28;20345;-15
2022/04/06 03:19:13;;;;;;;17.40;6.32;;;;;;;;;;5071092;28;20673;-14
2022/04/06 03:21:42;;;;;;;15.25;6.53;;;;;;;;;;5063533;28;20242;-14
2022/04/06 03:24:09;;;;;;;12.60;6.25;;;;;;;;;;5050596;28;20693;-14
2022/04/06 03:26:36;;;;;;;11.73;6.15;;;;;;;;;;5050871;28;20228;-14
2022/04/06 03:29:04;;;;;;;17.00;6.45;;;;;;;;;;5050573;28;20222;-15
2022/04/06 03:31:31;;;;;;;16.00;6.53;;;;;;;;;;5049285;28;20723;-14
2022/04/06 03:33:58;;;;;;;14.07;6.57;;;;;;;;;;5049860;28;20230;-14
2022/04/06 03:36:26;;;;;;;12.20;6.00;;;;;;;;;;5050616;28;20234;-14
2022/04/06 03:38:54;;;;;;;12.55;5.53;;;;;;;;;;5050200;28;20261;-14
2022/04/06 03:41:22;;;;;;;16.90;6.03;;;;;;;;;;5046873;28;20226;-14
2022/04/06 03:43:49;;;;;;;13.35;5.38;;;;;;;;;;5045786;28;20233;-14
2022/04/06 03:46:16;;;;;;;15.68;6.15;;;;;;;;;;5051928;28;20232;-14
2022/04/06 03:48:44;;;;;;;12.38;5.70;;;;;;;;;;5053927;28;20288;-14
2022/04/06 03:51:11;;;;;;;13.27;5.40;;;;;;;;;;5053406;28;20245;-14
2022/04/06 03:53:39;;;;;;;11.68;4.95;;;;;;;;;;5053804;28;20241;-15
2022/04/06 03:56:07;;;;;;;11.82;4.65;;;;;;;;;;5052965;28;20234;-14
2022/04/06 03:58:35;;;;;;;16.73;6.28;;;;;;;;;;5053767;28;20218;-14
2022/04/06 04:01:02;;;;;;;13.55;5.43;;;;;;;;;;5052663;28;20226;-15
2022/04/06 04:03:29;;;;;;;14.52;5.00;;;;;;;;;;5053957;28;20226;-14
2022/04/06 04:05:57;;;;;;;15.10;5.78;;;;;;;;;;5052687;28;20230;-14
2022/04/06 04:08:26;;;;;;;9.98;4.75;;;;;;;;;;5053789;28;20963;-14
2022/04/06 04:10:53;;;;;;;15.75;4.80;;;;;;;;;;5053369;28;20230;-14
2022/04/06 04:13:22;;;;;;;12.70;5.15;;;;;;;;;;5049900;28;20237;-15
2022/04/06 04:15:50;;;;;;;13.80;5.03;;;;;;;;;;5046049;28;20243;-14
2022/04/06 04:18:17;;;;;;;11.23;4.38;;;;;;;;;;5052819;28;20234;-14
2022/04/06 04:20:45;;;;;;;13.13;4.20;;;;;;;;;;5053196;28;20226;-14
2022/04/06 04:23:13;;;;;;;10.43;4.53;;;;;;;;;;5052739;28;20308;-14
2022/04/06 04:25:40;;;;;;;11.40;4.65;;;;;;;;;;5053128;28;20237;-14
2022/04/06 04:28:07;;;;;;;10.48;4.10;;;;;;;;;;5052657;28;20233;-14
2022/04/06 04:30:36;;;;;;;10.02;4.10;;;;;;;;;;5052759;28;20236;-14
2022/04/06 04:33:03;;;;;;;12.07;3.50;;;;;;;;;;5052736;28;20237;-14
2022/04/06 04:35:31;;;;;;;10.23;4.00;;;;;;;;;;5052807;28;20720;-14
2022/04/06 04:37:58;;;;;;;8.60;3.80;;;;;;;;;;5053139;28;20225;-14
2022/04/06 04:40:25;;;;;;;8.73;3.90;;;;;;;;;;5048195;28;20237;-14
2022/04/06 04:42:53;;;;;;;8.60;3.63;;;;;;;;;;5053031;28;20230;-14
2022/04/06 04:45:20;;;;;;;10.82;3.58;;;;;;;;;;5047513;28;20234;-14
2022/04/06 04:47:49;;;;;;;9.27;3.20;;;;;;;;;;5052806;28;20230;-14
2022/04/06 04:50:19;;;;;;;11.13;3.47;;;;;;;;;;5051976;28;20241;-14
2022/04/06 04:52:46;;;;;;;8.93;3.13;;;;;;;;;;5052748;28;20764;-14
2022/04/06 04:55:14;;;;;;;8.82;2.80;;;;;;;;;;5052373;28;20237;-14
2022/04/06 04:57:41;;;;;;;6.40;3.22;;;;;;;;;;5052652;28;20246;-14
2022/04/06 05:00:09;;;;;;;11.70;2.70;;;;;;;;;;5052498;28;20732;-14
2022/04/06 05:02:37;;;;;;;10.40;3.70;;;;;;;;;;5051869;28;20264;-15
2022/04/06 05:05:06;;;;;;;12.65;3.13;;;;;;;;;;5052298;28;20991;-14
2022/04/06 05:07:37;;;;;;;5.53;2.63;;;;;;;;;;5051974;28;20230;-14
2022/04/06 05:10:05;;;;;;;7.32;2.70;;;;;;;;;;5052516;28;20238;-15
2022/04/06 05:12:32;;;;;;;10.00;2.60;;;;;;;;;;5052302;28;20238;-14
2022/04/06 05:15:00;;;;;;;5.40;2.08;;;;;;;;;;5052836;28;20840;-14
2022/04/06 05:17:27;;;;;;;7.53;2.22;;;;;;;;;;5052131;28;20740;-14
2022/04/06 05:19:54;;;;;;;8.55;2.45;;;;;;;;;;5052280;28;20233;-14
2022/04/06 05:22:23;;;;;;;7.13;2.10;;;;;;;;;;5050967;28;20249;-14
2022/04/06 05:24:50;;;;;;;8.50;2.83;;;;;;;;;;5038615;28;20693;-14
2022/04/06 05:27:18;;;;;;;7.18;2.40;;;;;;;;;;5052204;28;20230;-14
2022/04/06 05:29:45;;;;;;;6.50;2.25;;;;;;;;;;5049064;28;20265;-15
2022/04/06 05:32:13;;;;;;;6.90;2.45;;;;;;;;;;5050484;28;20242;-14
2022/04/06 05:34:40;;;;;;;5.80;2.03;;;;;;;;;;5051541;28;20756;-14
2022/04/06 05:37:07;;;;;;;5.15;2.33;;;;;;;;;;5051172;28;20234;-14
2022/04/06 05:39:36;;;;;;;9.77;2.47;;;;;;;;;;5051413;28;20610;-15
2022/04/06 05:42:04;;;;;;;6.18;2.03;;;;;;;;;;5051238;28;20249;-14
2022/04/06 05:44:31;;;;;;;5.13;1.90;;;;;;;;;;5051355;28;20253;-14
2022/04/06 05:46:58;;;;;;;9.95;2.33;;;;;;;;;;5049101;28;20214;-14
2022/04/06 05:49:26;;;;;;;7.82;2.17;;;;;;;;;;5052225;28;21033;-14
2022/04/06 05:51:53;;;;;;;5.55;2.20;;;;;;;;;;5051733;28;20229;-14
2022/04/06 05:54:20;;;;;;;4.03;1.63;;;;;;;;;;5048063;28;20588;-14
2022/04/06 05:56:49;;;;;;;7.35;2.28;;;;;;;;;;5051012;28;20238;-15
2022/04/06 05:59:16;;;;;;;7.13;2.13;;;;;;;;;;5052298;28;20981;-14
2022/04/06 06:01:44;;;;;;;6.63;1.95;;;;;;;;;;5050083;28;20241;-14
2022/04/06 06:04:11;;;;;;;4.78;1.90;;;;;;;;;;5051749;28;20276;-14
2022/04/06 06:06:38;;;;;;;5.47;1.83;;;;;;;;;;5050936;28;20222;-14
2022/04/06 06:09:06;;;;;;;5.03;1.58;;;;;;;;;;5050668;28;20222;-14
2022/04/06 06:11:33;;;;;;;8.20;1.98;;;;;;;;;;5052077;28;20230;-15
2022/04/06 06:14:02;;;;;;;6.53;1.77;;;;;;;;;;5051515;28;20272;-14
2022/04/06 06:16:30;;;;;;;6.43;1.67;;;;;;;;;;5050572;28;20230;-15
2022/04/06 06:18:57;;;;;;;5.93;1.67;;;;;;;;;;5051241;28;20296;-14
2022/04/06 06:21:26;;;;;;;5.05;1.60;;;;;;;;;;5050841;28;20222;-15
2022/04/06 06:23:54;;;;;;;5.55;1.58;;;;;;;;;;5051389;28;20615;-15
2022/04/06 06:26:21;;;;;;;11.52;1.95;;;;;;;;;;5051198;28;20232;-15
2022/04/06 06:28:49;;;;;;;5.93;1.52;;;;;;;;;;5050745;28;20233;-15
2022/04/06 06:31:17;;;;;;;11.55;1.95;;;;;;;;;;5050188;28;20708;-14
2022/04/06 06:33:45;;;;;;;9.38;2.10;;;;;;;;;;5043386;28;20234;-15
2022/04/06 06:36:13;;;;;;;11.52;1.70;;;;;;;;;;5043396;28;20324;-15
2022/04/06 06:38:40;;;;;;;5.20;1.83;;;;;;;;;;5044097;28;21053;-15
2022/04/06 06:41:08;;;;;;;7.63;2.03;;;;;;;;;;5048572;28;20226;-15
2022/04/06 06:43:35;;;;;;;6.85;2.00;;;;;;;;;;5050499;28;20218;-14
2022/04/06 06:46:02;;;;;;;8.13;2.42;;;;;;;;;;5049572;28;20234;-14
2022/04/06 06:48:31;;;;;;;5.68;1.65;;;;;;;;;;5050830;28;20618;-14
2022/04/06 06:50:58;;;;;;;9.18;2.35;;;;;;;;;;5050268;28;20230;-14
2022/04/06 06:53:25;;;;;;;5.78;1.65;;;;;;;;;;5050562;28;20996;-14
2022/04/06 06:55:53;;;;;;;8.43;2.15;;;;;;;;;;5050981;28;20234;-14
2022/04/06 06:58:20;;;;;;;3.83;1.85;;;;;;;;;;5047283;28;20249;-14
2022/04/06 07:00:48;;;;;;;9.85;2.55;;;;;;;;;;5050248;28;20226;-14
2022/04/06 07:03:15;;;;;;;6.63;2.10;;;;;;;;;;5050922;28;20621;-14
2022/04/06 07:05:45;;;;;;;8.82;2.40;;;;;;;;;;5050016;28;20256;-14
2022/04/06 07:08:12;;;;;;;8.57;2.67;;;;;;;;;;5050488;28;20230;-14
2022/04/06 07:10:39;;;;;;;9.48;3.00;;;;;;;;;;5050845;28;20229;-14
2022/04/06 07:13:09;;;;;;;9.07;2.67;;;;;;;;;;5049776;28;20941;-14
2022/04/06 07:15:36;;;;;;;8.10;2.83;;;;;;;;;;5047854;28;20861;-14
2022/04/06 07:18:05;;;;;;;6.95;2.70;;;;;;;;;;5050890;28;20230;-14
2022/04/06 07:20:35;;;;;;;9.80;2.53;;;;;;;;;;5053874;28;20716;-14
2022/04/06 07:23:04;;;;;;;8.95;3.22;;;;;;;;;;5053216;28;20246;-14
2022/04/06 07:25:31;;;;;;;9.88;3.03;;;;;;;;;;5054867;28;20242;-14
2022/04/06 07:27:59;;;;;;;9.25;2.60;;;;;;;;;;5054191;28;20237;-14
2022/04/06 07:30:26;;;;;;;7.28;2.55;;;;;;;;;;5053701;28;20237;-14
2022/04/06 07:32:53;;;;;;;6.90;2.47;;;;;;;;;;5050539;28;20236;-14
2022/04/06 07:35:21;;;;;;;8.18;2.25;;;;;;;;;;5048379;28;20241;-14
2022/04/06 07:37:48;;;;;;;8.95;2.83;;;;;;;;;;5054134;28;20237;-14
2022/04/06 07:40:18;;;;;;;7.45;2.35;;;;;;;;;;5053963;28;20226;-14
2022/04/06 07:42:46;;;;;;;9.57;2.17;;;;;;;;;;5053859;28;20222;-14
2022/04/06 07:45:14;;;;;;;7.05;2.20;;;;;;;;;;5051980;28;20237;-14
2022/04/06 07:47:41;;;;;;;7.68;2.25;;;;;;;;;;5053458;28;20238;-14
2022/04/06 07:50:09;;;;;;;5.68;2.17;;;;;;;;;;5053801;28;20241;-14
2022/04/06 07:52:36;;;;;;;6.20;2.22;;;;;;;;;;5053551;28;20317;-14
2022/04/06 07:55:04;;;;;;;8.75;2.50;;;;;;;;;;5053627;28;20331;-14
2022/04/06 07:57:33;;;;;;;8.00;2.25;;;;;;;;;;5052261;28;20273;-14
2022/04/06 08:00:01;;;;;;;6.55;2.17;;;;;;;;;;5053205;28;20230;-14
2022/04/06 08:02:29;;;;;;;12.55;2.80;;;;;;;;;;5052568;28;20418;-14
2022/04/06 08:04:56;;;;;;;10.40;2.40;;;;;;;;;;5053066;28;20230;-14
2022/04/06 08:07:24;;;;;;;7.38;2.28;;;;;;;;;;5052903;28;20237;-14
2022/04/06 08:09:51;;;;;;;11.52;2.30;;;;;;;;;;5050662;28;20998;-14
2022/04/06 08:12:18;;;;;;;4.78;2.05;;;;;;;;;;5053440;28;20222;-14
2022/04/06 08:14:48;;;;;;;10.63;2.55;;;;;;;;;;5051679;28;20866;-15
2022/04/06 08:17:16;;;;;;;7.13;2.08;;;;;;;;;;5049852;28;20226;-15
2022/04/06 08:19:43;;;;;;;8.32;2.03;;;;;;;;;;5052784;28;20222;-14
2022/04/06 08:22:10;;;;;;;6.95;1.80;;;;;;;;;;5052021;28;20249;-14
2022/04/06 08:24:37;;;;;;;7.50;2.03;;;;;;;;;;5052757;28;20222;-14
2022/04/06 08:27:05;;;;;;;7.45;1.98;;;;;;;;;;5052784;28;20269;-14
2022/04/06 08:29:32;;;;;;;7.97;1.50;;;;;;;;;;5049449;28;20622;-14
2022/04/06 08:32:01;;;;;;;13.88;2.15;;;;;;;;;;5047519;28;20414;-14
2022/04/06 08:34:28;;;;;;;12.25;2.25;;;;;;;;;;5052463;28;20252;-14
2022/04/06 08:36:56;;;;;;;12.57;2.05;;;;;;;;;;5052152;28;20442;-14
2022/04/06 08:39:23;;;;;;;11.90;1.98;;;;;;;;;;5052762;28;20232;-14
2022/04/06 08:41:53;;;;;;;9.63;1.65;;;;;;;;;;5053230;28;20238;-14
2022/04/06 08:44:21;;;;;;;8.05;2.22;;;;;;;;;;5047928;28;20237;-14
2022/04/06 08:46:48;;;;;;;6.43;1.83;;;;;;;;;;5050085;28;20214;-14
2022/04/06 08:49:17;;;;;;;5.30;1.40;;;;;;;;;;5052857;28;21078;-14
2022/04/06 08:51:44;;;;;;;5.15;1.67;;;;;;;;;;5052329;28;20260;-14
2022/04/06 08:54:12;;;;;;;7.72;1.65;;;;;;;;;;5052529;28;20244;-14
2022/04/06 08:56:39;;;;;;;3.38;1.40;;;;;;;;;;5052743;28;20632;-14
2022/04/06 08:59:09;;;;;;;5.68;1.67;;;;;;;;;;5052981;28;20317;-14
2022/04/06 09:01:36;;;;;;;7.32;1.58;;;;;;;;;;5047968;28;21067;-14
2022/04/06 09:04:04;;;;;;;6.97;1.90;;;;;;;;;;5053331;28;20547;-14
2022/04/06 09:06:52;;;;;;;5.05;1.55;;;;;;;;;;5053714;28;20230;-14
2022/04/06 09:09:20;;;;;;;11.15;1.50;;;;;;;;;;5049419;28;20238;-14
2022/04/06 09:11:48;;;;;;;3.05;1.48;;;;;;;;;;5053057;28;20329;-14
2022/04/06 09:14:15;;;;;;;6.43;1.73;;;;;;;;;;5052111;28;20238;-14
2022/04/06 09:16:42;;;;;;;15.17;1.97;;;;;;;;;;5048288;28;21247;-14
2022/04/06 09:19:10;;;;;;;10.18;1.70;;;;;;;;;;5052471;28;20914;-14
2022/04/06 09:21:41;;;;;;;9.35;2.00;;;;;;;;;;5051605;28;20254;-14
2022/04/06 09:24:16;;;;;;;7.60;1.90;;;;;;;;;;5051731;28;20230;-14
2022/04/06 09:26:43;;;;;;;8.25;2.42;;;;;;;;;;5052191;28;20984;-14
2022/04/06 09:29:13;;;;;;;7.68;1.63;;;;;;;;;;5045438;28;20722;-14
2022/04/06 09:31:41;;;;;;;10.75;1.50;;;;;;;;;;5042946;28;20234;-16
2022/04/06 09:34:11;;;;;;;8.00;1.70;;;;;;;;;;5036228;28;20270;-14
2022/04/06 09:36:38;;;;;;;15.70;1.55;;;;;;;;;;5045033;28;20305;-14
2022/04/06 09:39:06;;;;;;;8.45;1.80;;;;;;;;;;5042446;28;20427;-15
2022/04/06 09:41:34;;;;;;;9.10;1.77;;;;;;;;;;5042858;28;20235;-14
2022/04/06 09:44:08;;;;;;;8.68;2.38;;;;;;;;;;5039529;28;20230;-14
2022/04/06 09:49:28;;;;;;;12.95;1.85;;;;;;;;;;5043651;28;20242;-15
2022/04/06 09:51:55;;;;;;;6.38;1.77;;;;;;;;;;5037353;28;20875;-15
2022/04/06 09:54:23;;;;;;;4.47;1.60;;;;;;;;;;5042722;28;20246;-15
2022/04/06 09:56:52;;;;;;;8.57;1.63;;;;;;;;;;5040271;28;20244;-15
2022/04/06 09:59:19;;;;;;;6.13;1.80;;;;;;;;;;5038554;28;20241;-15
2022/04/06 10:01:48;;;;;;;6.65;1.80;;;;;;;;;;5041401;28;20340;-16
2022/04/06 10:04:21;;;;;;;8.73;1.77;;;;;;;;;;5038466;28;20234;-15
2022/04/06 10:06:49;;;;;;;3.78;1.55;;;;;;;;;;5043055;28;20266;-15
2022/04/06 10:09:16;;;;;;;4.32;1.73;;;;;;;;;;5038465;28;20235;-15
2022/04/06 10:11:44;;;;;;;3.10;1.52;;;;;;;;;;5041510;28;20253;-15
2022/04/06 10:14:12;;;;;;;4.75;1.63;;;;;;;;;;5036612;28;20246;-15
2022/04/06 10:16:40;;;;;;;4.95;1.60;;;;;;;;;;5034598;28;20239;-15
2022/04/06 10:19:08;;;;;;;6.80;1.75;;;;;;;;;;5034361;28;20720;-15
2022/04/06 10:21:37;;;;;;;6.28;1.75;;;;;;;;;;5041604;28;20253;-15
2022/04/06 10:24:07;;;;;;;4.13;1.38;;;;;;;;;;5041783;28;20245;-15
2022/04/06 10:26:36;;;;;;;5.68;1.83;;;;;;;;;;5035442;28;20233;-15
2022/04/06 10:29:04;;;;;;;5.93;1.90;;;;;;;;;;5039669;28;20618;-15
2022/04/06 10:31:33;;;;;;;5.18;1.50;;;;;;;;;;5036132;28;20231;-15
2022/04/06 10:34:20;;;;;;;6.18;1.85;;;;;;;;;;5037564;28;20713;-15
2022/04/06 10:37:02;;;;;;;6.00;1.90;;;;;;;;;;5044322;28;20242;-15
2022/04/06 10:39:30;;;;;;;5.20;1.98;;;;;;;;;;5041133;28;20713;-15
2022/04/06 10:42:13;;;;;;;4.68;1.83;;;;;;;;;;5036586;28;20246;-15
2022/04/06 10:44:40;;;;;;;7.20;1.77;;;;;;;;;;5040360;28;20435;-15
2022/04/06 10:47:09;;;;;;;6.30;1.80;;;;;;;;;;5041174;28;20235;-15
2022/04/06 10:49:37;;;;;;;15.38;2.33;;;;;;;;;;5035170;28;20297;-15
2022/04/06 10:52:17;;;;;;;7.88;1.83;;;;;;;;;;5039169;28;20240;-14
2022/04/06 10:54:45;;;;;;;3.92;1.73;;;;;;;;;;5039386;28;20245;-16
2022/04/06 10:57:12;;;;;;;6.10;1.80;;;;;;;;;;5043610;28;20237;-15
2022/04/06 10:59:39;;;;;;;4.75;1.80;;;;;;;;;;5038706;28;20662;-15
2022/04/06 11:02:21;;;;;;;5.18;1.73;;;;;;;;;;5043076;28;20346;-15
2022/04/06 11:04:50;;;;;;;5.65;1.90;;;;;;;;;;5036265;28;20230;-15
2022/04/06 11:10:06;;;;;;;4.55;1.70;;;;;;;;;;5042836;28;20728;-15
2022/04/06 11:10:12;;;;;;;4.35;1.60;;;;;;;;;;5041484;28;20623;-15
2022/04/06 11:12:56;;;;;;;5.53;1.60;;;;;;;;;;5040939;28;20234;-15
2022/04/06 11:15:32;;;;;;;6.03;1.60;;;;;;;;;;5034375;28;20246;-15
2022/04/06 11:18:00;;;;;;;4.60;1.90;;;;;;;;;;5041945;28;20242;-15
2022/04/06 11:20:31;;;;;;;3.50;1.40;;;;;;;;;;5038884;28;20222;-15
2022/04/06 11:22:58;;;;;;;3.67;1.38;;;;;;;;;;5039962;28;20650;-15
2022/04/06 11:25:26;;;;;;;7.32;1.63;;;;;;;;;;5043391;28;20756;-15
2022/04/06 11:27:55;;;;;;;5.68;1.42;;;;;;;;;;5039141;28;20240;-15
2022/04/06 11:30:23;;;;;;;5.68;2.05;;;;;;;;;;5041545;28;20234;-15
2022/04/06 11:32:51;;;;;;;4.40;1.50;;;;;;;;;;5035003;28;20235;-15
2022/04/06 11:35:19;;;;;;;4.97;1.80;;;;;;;;;;5038442;28;20246;-15
2022/04/06 11:37:52;;;;;;;4.88;1.50;;;;;;;;;;5038521;28;20289;-15
2022/04/06 11:40:20;;;;;;;4.20;1.67;;;;;;;;;;5040903;28;20241;-15
2022/04/06 11:42:47;;;;;;;6.55;1.88;;;;;;;;;;5035444;28;21009;-15
2022/04/06 11:45:18;;;;;;;4.20;1.20;;;;;;;;;;5035000;28;20608;-15
2022/04/06 11:47:48;;;;;;;4.57;1.55;;;;;;;;;;5043100;28;20234;-15
2022/04/06 11:50:21;;;;;;;3.92;1.50;;;;;;;;;;5031794;28;20294;-15
2022/04/06 11:52:48;;;;;;;5.57;1.50;;;;;;;;;;5039532;28;20235;-15
2022/04/06 11:55:16;;;;;;;5.78;2.05;;;;;;;;;;5035197;28;20274;-15
2022/04/06 11:57:45;;;;;;;6.38;1.67;;;;;;;;;;5041754;28;20819;-15
2022/04/06 12:00:13;;;;;;;3.53;1.40;;;;;;;;;;5039557;28;20241;-15
2022/04/06 12:02:48;;;;;;;3.92;1.58;;;;;;;;;;5041053;28;20431;-15
2022/04/06 12:05:15;;;;;;;8.82;1.50;;;;;;;;;;5034246;28;20234;-15
2022/04/06 12:07:44;;;;;;;4.47;1.60;;;;;;;;;;5038738;28;20237;-15
2022/04/06 12:10:11;;;;;;;12.07;2.42;;;;;;;;;;5044344;28;20245;-15
2022/04/06 12:12:40;;;;;;;4.20;1.10;;;;;;;;;;5042165;28;20242;-15
2022/04/06 12:15:18;;;;;;;3.20;1.40;;;;;;;;;;5049260;28;20226;-15
2022/04/06 12:17:46;;;;;;;3.15;1.38;;;;;;;;;;5043410;28;20705;-15
2022/04/06 12:20:23;;;;;;;2.65;1.42;;;;;;;;;;5047253;28;20234;-15
2022/04/06 12:23:01;;;;;;;2.60;1.60;;;;;;;;;;5038878;28;20254;-15
2022/04/06 12:25:29;;;;;;;4.43;1.33;;;;;;;;;;5045644;28;21201;-15
2022/04/06 12:28:12;;;;;;;3.55;1.45;;;;;;;;;;5046520;28;20234;-15
2022/04/06 12:30:52;;;;;;;6.35;1.30;;;;;;;;;;5037933;28;20230;-15
2022/04/06 12:33:36;;;;;;;4.53;1.25;;;;;;;;;;5039658;28;20241;-15
2022/04/06 12:36:07;;;;;;;3.92;1.48;;;;;;;;;;5044487;28;20253;-15
2022/04/06 12:38:35;;;;;;;5.03;1.80;;;;;;;;;;5042623;28;20421;-15
2022/04/06 12:41:03;;;;;;;7.20;1.60;;;;;;;;;;5042672;28;20436;-15
2022/04/06 12:43:47;;;;;;;4.72;1.80;;;;;;;;;;5045729;28;20580;-15
2022/04/06 12:46:14;;;;;;;5.45;1.58;;;;;;;;;;5045076;28;20260;-15
2022/04/06 12:48:41;;;;;;;2.85;1.45;;;;;;;;;;5047999;28;20229;-15
2022/04/06 12:51:29;;;;;;;4.13;1.45;;;;;;;;;;5045272;28;20242;-15
2022/04/06 12:53:57;;;;;;;7.63;1.63;;;;;;;;;;5047076;28;20240;-15
2022/04/06 12:56:26;;;;;;;6.03;2.38;;;;;;;;;;5043710;28;20945;-15
2022/04/06 12:59:09;;;;;;;3.22;1.55;;;;;;;;;;5045805;28;20241;-15
2022/04/06 13:01:45;;;;;;;5.05;2.13;;;;;;;;;;5035535;28;20238;-15
2022/04/06 13:04:13;;;;;;;6.32;2.03;;;;;;;;;;5041317;28;20292;-15
2022/04/06 13:06:40;;;;;;;3.03;1.75;;;;;;;;;;5037552;28;20241;-15
2022/04/06 13:09:13;;;;;;;3.75;1.77;;;;;;;;;;5041361;28;20238;-15
2022/04/06 13:11:49;;;;;;;4.65;1.95;;;;;;;;;;5044765;28;20261;-16
2022/04/06 13:14:16;;;;;;;2.70;1.73;;;;;;;;;;5039531;28;20231;-15
2022/04/06 13:16:44;;;;;;;3.90;1.55;;;;;;;;;;5040802;28;20247;-15
2022/04/06 13:19:12;;;;;;;2.90;1.45;;;;;;;;;;5045240;28;20266;-15
2022/04/06 13:21:40;;;;;;;6.10;1.40;;;;;;;;;;5046353;28;20242;-15
2022/04/06 13:24:07;;;;;;;2.63;1.75;;;;;;;;;;5041755;28;20241;-16
2022/04/06 13:26:36;;;;;;;4.68;1.77;;;;;;;;;;5037766;28;20761;-15
2022/04/06 13:29:03;;;;;;;3.40;1.60;;;;;;;;;;5042730;28;20245;-15
2022/04/06 13:31:31;;;;;;;2.33;1.30;;;;;;;;;;5042015;28;20230;-15
2022/04/06 13:33:58;;;;;;;7.05;1.23;;;;;;;;;;5045434;28;21096;-15
2022/04/06 13:36:26;;;;;;;2.88;1.63;;;;;;;;;;5043651;28;20701;-15
2022/04/06 13:38:53;;;;;;;4.68;1.85;;;;;;;;;;5044111;28;20233;-15
2022/04/06 13:41:20;;;;;;;4.43;2.10;;;;;;;;;;5035623;28;20628;-15
2022/04/06 13:43:49;;;;;;;5.60;2.10;;;;;;;;;;5045681;28;20242;-15
2022/04/06 13:46:16;;;;;;;5.40;1.75;;;;;;;;;;5034722;28;20277;-15
2022/04/06 13:48:44;;;;;;;5.25;1.55;;;;;;;;;;5038361;28;22379;-15
2022/04/06 13:51:12;;;;;;;9.13;1.88;;;;;;;;;;5036167;28;20234;-15
2022/04/06 13:53:40;;;;;;;6.68;1.70;;;;;;;;;;5045073;28;20431;-15
2022/04/06 13:56:08;;;;;;;4.80;1.60;;;;;;;;;;5039727;28;20230;-15
2022/04/06 13:58:35;;;;;;;5.78;2.08;;;;;;;;;;5040503;28;20230;-15
2022/04/06 14:01:04;;;;;;;3.50;1.60;;;;;;;;;;5034868;28;20234;-15
2022/04/06 14:03:32;;;;;;;4.35;1.80;;;;;;;;;;5037718;28;20329;-15
2022/04/06 14:05:59;;;;;;;5.03;1.90;;;;;;;;;;5045403;28;20233;-15
2022/04/06 14:08:27;;;;;;;4.22;2.08;;;;;;;;;;5039653;28;20239;-15
2022/04/06 14:10:54;;;;;;;3.25;1.50;;;;;;;;;;5039014;28;20674;-15
2022/04/06 14:13:21;;;;;;;2.50;1.70;;;;;;;;;;5040366;28;20242;-15
2022/04/06 14:15:49;;;;;;;4.93;1.88;;;;;;;;;;5039658;28;20438;-15
2022/04/06 14:18:19;;;;;;;24.33;2.08;;;;;;;;;;5042680;28;20304;-15
2022/04/06 14:20:47;;;;;;;17.55;2.90;;;;;;;;;;5044537;28;20258;-15
2022/04/06 14:23:14;;;;;;;8.20;1.90;;;;;;;;;;5038649;28;20265;-15
2022/04/06 14:25:47;;;;;;;8.90;2.00;;;;;;;;;;5045450;28;20277;-15
2022/04/06 14:28:14;;;;;;;9.18;1.88;;;;;;;;;;5034874;28;20953;-15
2022/04/06 14:30:48;;;;;;;7.40;1.58;;;;;;;;;;5037381;28;20239;-15
2022/04/06 14:33:18;;;;;;;13.38;1.85;;;;;;;;;;5043325;28;20455;-15
2022/04/06 14:35:45;;;;;;;9.20;1.75;;;;;;;;;;5038406;28;20230;-15
2022/04/06 14:38:13;;;;;;;7.25;1.77;;;;;;;;;;5042219;28;20243;-16
2022/04/06 14:40:42;;;;;;;9.70;2.05;;;;;;;;;;5036999;28;20357;-16
2022/04/06 14:43:09;;;;;;;7.00;1.60;;;;;;;;;;5040738;28;20234;-15
2022/04/06 14:45:37;;;;;;;5.68;2.67;;;;;;;;;;5034114;28;20234;-15
2022/04/06 14:48:05;;;;;;;8.85;1.60;;;;;;;;;;5043149;28;20241;-15
2022/04/06 14:50:34;;;;;;;8.18;1.65;;;;;;;;;;5034442;28;20239;-15
2022/04/06 14:53:01;;;;;;;9.25;1.48;;;;;;;;;;5033855;28;20238;-15